Terminal Aerodrome Forecast
Issued by NWS

Home | Current Version | Previous Version | Text Only | Print | Product List | Glossary On
Versions: 1 2 3 4 5 6 7 8 9 10 11 12 13 14
000
FTUS44 KLZK 292300
TAFHRO
TAF
KHRO 292332Z 3000/3024 VRB03KT P6SM SCT070
     FM300900 16003KT P6SM VCSH SCT050 OVC100 PROB30 3012/3018 -RA
      BKN030
     FM301800 22007KT P6SM VCSH OVC040 PROB30 3018/3024 4SM -RA BR
      OVC025=

USA.gov is the U.S. government's official web portal to all federal, state and local government web resources and services.